createdAt,value
2022-07-27T00:02:00.936Z,13.70
2022-07-27T00:04:28.544Z,13.50
2022-07-27T00:06:56.128Z,13.50
2022-07-27T00:09:24.193Z,13.40
2022-07-27T00:11:51.776Z,13.40
2022-07-27T00:14:19.418Z,13.40
2022-07-27T00:16:47.168Z,13.30
2022-07-27T00:19:16.197Z,13.20
2022-07-27T00:21:46.158Z,13.20
2022-07-27T00:24:14.247Z,13.10
2022-07-27T00:26:41.799Z,13.10
2022-07-27T00:29:09.740Z,13.10
2022-07-27T00:31:37.410Z,13.00
2022-07-27T00:34:05.049Z,12.90
2022-07-27T00:36:32.657Z,12.80
2022-07-27T00:39:00.290Z,12.80
2022-07-27T00:41:27.834Z,12.80
2022-07-27T00:43:58.091Z,12.80
2022-07-27T00:46:27.136Z,12.80
2022-07-27T00:48:54.947Z,12.80
2022-07-27T00:51:23.496Z,12.80
2022-07-27T00:53:53.960Z,12.80
2022-07-27T00:56:22.600Z,12.80
2022-07-27T00:58:52.651Z,12.80
2022-07-27T01:01:20.647Z,12.80
2022-07-27T01:03:48.328Z,12.90
2022-07-27T01:06:16.969Z,12.90
2022-07-27T01:09:14.462Z,12.80
2022-07-27T01:11:42.201Z,12.70
2022-07-27T01:14:10.897Z,12.70
2022-07-27T01:16:38.588Z,12.70
2022-07-27T01:19:08.744Z,12.70
2022-07-27T01:21:37.257Z,12.70
2022-07-27T01:24:05.623Z,12.70
2022-07-27T01:26:35.030Z,12.80
2022-07-27T01:29:03.140Z,12.80
2022-07-27T01:31:31.308Z,12.80
2022-07-27T01:33:59.458Z,12.80
2022-07-27T01:36:27.462Z,12.80
2022-07-27T01:38:55.016Z,12.80
2022-07-27T01:41:22.741Z,12.80
2022-07-27T01:43:50.281Z,12.80
2022-07-27T01:46:17.940Z,12.90
2022-07-27T01:48:45.620Z,12.90
2022-07-27T01:51:13.284Z,12.90
2022-07-27T01:53:40.827Z,12.90
2022-07-27T01:56:12.730Z,12.90
2022-07-27T01:58:41.589Z,12.90
2022-07-27T02:01:09.713Z,12.90
2022-07-27T02:03:37.685Z,12.90
2022-07-27T02:06:05.602Z,12.90
2022-07-27T02:08:34.349Z,12.90
2022-07-27T02:11:20.659Z,12.80
2022-07-27T02:13:49.264Z,12.80
2022-07-27T02:16:18.008Z,12.80
2022-07-27T02:18:48.728Z,12.80
2022-07-27T02:21:16.680Z,12.90
2022-07-27T02:23:45.507Z,12.80
2022-07-27T02:26:13.115Z,12.80
2022-07-27T02:28:40.670Z,12.80
2022-07-27T02:31:08.235Z,12.80
2022-07-27T02:33:35.793Z,12.80
2022-07-27T02:36:03.970Z,12.90
2022-07-27T02:38:31.469Z,12.80
2022-07-27T02:40:59.133Z,12.90
2022-07-27T02:43:26.781Z,12.90
2022-07-27T02:45:54.372Z,13.00
2022-07-27T02:48:22.010Z,12.90
2022-07-27T02:50:49.518Z,12.90
2022-07-27T02:53:17.143Z,12.90
2022-07-27T02:55:44.673Z,12.80
2022-07-27T02:58:12.259Z,12.80
2022-07-27T03:00:39.811Z,12.80
2022-07-27T03:03:07.462Z,12.80
2022-07-27T03:05:35.106Z,12.70
2022-07-27T03:08:03.971Z,12.70
2022-07-27T03:10:32.293Z,12.70
2022-07-27T03:12:59.951Z,12.70
2022-07-27T03:15:27.608Z,12.70
2022-07-27T03:17:55.377Z,12.70
2022-07-27T03:20:22.912Z,12.70
2022-07-27T03:22:50.449Z,12.70
2022-07-27T03:25:18.041Z,12.80
2022-07-27T03:27:45.543Z,12.80
2022-07-27T03:30:13.205Z,12.80
2022-07-27T03:32:40.855Z,12.80
2022-07-27T03:35:08.827Z,12.80
2022-07-27T03:37:36.401Z,12.70
2022-07-27T03:40:04.199Z,12.70
2022-07-27T03:42:31.684Z,12.80
2022-07-27T03:44:59.267Z,12.80
2022-07-27T03:47:26.862Z,12.70
2022-07-27T03:49:54.424Z,12.70
2022-07-27T03:52:22.074Z,12.70
2022-07-27T03:54:49.657Z,12.70
2022-07-27T03:57:17.189Z,12.70
2022-07-27T03:59:44.762Z,12.60
2022-07-27T04:02:12.389Z,12.60
2022-07-27T04:04:39.978Z,12.60
2022-07-27T04:07:08.004Z,12.50
2022-07-27T04:09:37.561Z,12.50
2022-07-27T04:12:07.536Z,12.50
2022-07-27T04:14:35.254Z,12.60
2022-07-27T04:17:02.979Z,12.60
2022-07-27T04:19:30.797Z,12.50
2022-07-27T04:21:58.349Z,12.60
2022-07-27T04:24:26.025Z,12.50
2022-07-27T04:26:53.632Z,12.60
2022-07-27T04:29:21.814Z,12.60
2022-07-27T04:31:49.734Z,12.60
2022-07-27T04:34:17.252Z,12.50
2022-07-27T04:36:44.872Z,12.50
2022-07-27T04:39:12.950Z,12.50
2022-07-27T04:41:40.787Z,12.40
2022-07-27T04:44:08.477Z,12.30
2022-07-27T04:46:36.036Z,12.30
2022-07-27T04:49:03.768Z,12.30
2022-07-27T04:51:34.623Z,12.30
2022-07-27T04:54:03.615Z,12.30
2022-07-27T04:56:31.162Z,12.30
2022-07-27T04:58:58.726Z,12.30
2022-07-27T05:01:30.348Z,12.30
2022-07-27T05:04:00.979Z,12.40
2022-07-27T05:06:28.621Z,12.40
2022-07-27T05:08:56.162Z,12.40
2022-07-27T05:11:23.694Z,12.50
2022-07-27T05:13:51.319Z,12.60
2022-07-27T05:16:18.987Z,12.60
2022-07-27T05:18:46.509Z,12.70
2022-07-27T05:21:14.084Z,12.70
2022-07-27T05:23:41.969Z,12.70
2022-07-27T05:26:09.535Z,12.70
2022-07-27T05:28:37.412Z,12.80
2022-07-27T05:31:04.886Z,12.80
2022-07-27T05:33:32.870Z,12.90
2022-07-27T05:36:00.379Z,12.80
2022-07-27T05:38:28.434Z,12.80
2022-07-27T05:40:56.175Z,12.80
2022-07-27T05:43:23.752Z,12.90
2022-07-27T05:45:51.378Z,13.00
2022-07-27T05:48:18.977Z,13.10
2022-07-27T05:50:46.477Z,13.10
2022-07-27T05:53:14.093Z,13.10
2022-07-27T05:55:58.525Z,13.20
2022-07-27T05:58:29.578Z,13.10
2022-07-27T06:00:58.011Z,13.10
2022-07-27T06:03:25.895Z,13.20
2022-07-27T06:06:13.472Z,13.20
2022-07-27T06:08:41.131Z,13.20
2022-07-27T06:11:08.799Z,13.20
2022-07-27T06:13:37.217Z,13.10
2022-07-27T06:16:10.605Z,13.20
2022-07-27T06:18:38.359Z,13.20
2022-07-27T06:21:05.975Z,13.20
2022-07-27T06:23:33.579Z,13.30
2022-07-27T06:26:01.187Z,13.40
2022-07-27T06:28:28.672Z,13.50
2022-07-27T06:30:56.219Z,13.50
2022-07-27T06:33:30.908Z,13.60
2022-07-27T06:35:59.994Z,13.60
2022-07-27T06:38:29.860Z,13.50
2022-07-27T06:40:57.436Z,13.30
2022-07-27T06:43:28.083Z,13.30
2022-07-27T06:45:56.168Z,13.40
2022-07-27T06:48:24.294Z,13.50
2022-07-27T06:50:52.846Z,13.60
2022-07-27T06:53:21.706Z,13.60
2022-07-27T06:55:50.203Z,13.50
2022-07-27T06:58:18.471Z,13.60
2022-07-27T07:00:46.340Z,13.60
2022-07-27T07:03:13.991Z,13.70
2022-07-27T07:05:45.588Z,13.70
2022-07-27T07:08:14.748Z,13.60
2022-07-27T07:10:46.009Z,13.70
2022-07-27T07:13:13.966Z,13.70
2022-07-27T07:15:42.855Z,13.80
2022-07-27T07:18:11.391Z,13.80
2022-07-27T07:20:39.487Z,13.80
2022-07-27T07:23:07.658Z,13.80
2022-07-27T07:25:35.990Z,13.90
2022-07-27T07:28:04.563Z,14.00
2022-07-27T07:30:32.280Z,14.10
2022-07-27T07:33:00.099Z,14.10
2022-07-27T07:35:27.652Z,14.10
2022-07-27T07:37:55.262Z,14.10
2022-07-27T07:40:42.595Z,14.10
2022-07-27T07:43:11.529Z,14.10
2022-07-27T07:45:50.818Z,14.20
2022-07-27T07:48:20.768Z,14.20
2022-07-27T07:50:52.143Z,14.00
2022-07-27T07:53:24.299Z,13.90
2022-07-27T07:55:53.084Z,13.90
2022-07-27T07:58:21.070Z,13.90
2022-07-27T08:00:48.994Z,13.90
2022-07-27T08:03:17.298Z,13.90
2022-07-27T08:05:45.040Z,13.90
2022-07-27T08:08:12.651Z,14.00
2022-07-27T08:10:40.466Z,14.00
2022-07-27T08:13:08.794Z,14.00
2022-07-27T08:15:36.678Z,14.10
2022-07-27T08:18:05.652Z,14.10
2022-07-27T08:20:33.949Z,14.10
2022-07-27T08:23:02.053Z,14.10
2022-07-27T08:25:29.819Z,14.20
2022-07-27T08:27:57.870Z,14.10
2022-07-27T08:30:25.711Z,14.10
2022-07-27T08:32:59.234Z,14.30
2022-07-27T08:35:27.374Z,14.30
2022-07-27T08:37:55.412Z,14.20
2022-07-27T08:40:41.988Z,14.20
2022-07-27T08:43:13.007Z,14.30
2022-07-27T08:45:41.775Z,14.40
2022-07-27T08:48:13.790Z,14.40
2022-07-27T08:50:42.990Z,14.40
2022-07-27T08:53:13.021Z,14.50
2022-07-27T08:55:42.962Z,14.50
2022-07-27T08:58:12.378Z,14.60
2022-07-27T09:00:42.799Z,14.50
2022-07-27T09:03:19.466Z,14.50
2022-07-27T09:05:49.775Z,14.60
2022-07-27T09:08:28.859Z,14.60
2022-07-27T09:10:59.809Z,14.50
2022-07-27T09:13:34.596Z,14.40
2022-07-27T09:16:23.200Z,14.40
2022-07-27T09:19:00.498Z,14.50
2022-07-27T09:21:29.327Z,14.50
2022-07-27T09:24:29.758Z,14.60
2022-07-27T09:27:05.867Z,14.60
2022-07-27T09:29:35.434Z,14.70
2022-07-27T09:32:17.060Z,14.70
2022-07-27T09:34:45.711Z,14.60
2022-07-27T09:37:27.257Z,14.60
2022-07-27T09:40:24.198Z,14.70
2022-07-27T09:44:12.107Z,14.80
2022-07-27T09:46:08.060Z,14.80
2022-07-27T09:48:36.338Z,14.80
2022-07-27T09:51:55.868Z,14.80
2022-07-27T09:53:59.097Z,14.90
2022-07-27T09:56:31.629Z,14.90
2022-07-27T09:59:01.664Z,14.80
2022-07-27T10:01:31.018Z,14.80
2022-07-27T10:04:00.872Z,14.70
2022-07-27T10:06:38.984Z,14.70
2022-07-27T10:09:15.858Z,14.70
2022-07-27T10:11:44.041Z,14.80
2022-07-27T10:14:11.984Z,14.80
2022-07-27T10:16:41.963Z,14.80
2022-07-27T10:19:25.977Z,14.80
2022-07-27T10:21:53.652Z,14.80
2022-07-27T10:24:32.376Z,14.80
2022-07-27T10:27:17.339Z,14.80
2022-07-27T10:29:46.932Z,14.80
2022-07-27T10:32:33.165Z,14.80
2022-07-27T10:35:01.897Z,14.80
2022-07-27T10:37:34.654Z,14.90
2022-07-27T10:40:26.305Z,14.90
2022-07-27T10:43:20.455Z,14.90
2022-07-27T10:46:02.435Z,14.70
2022-07-27T10:48:46.015Z,14.80
2022-07-27T10:51:17.034Z,14.90
2022-07-27T10:56:50.293Z,15.00
2022-07-27T11:00:07.036Z,15.10
2022-07-27T11:02:41.160Z,15.20
2022-07-27T11:05:42.507Z,15.30
2022-07-27T11:10:48.745Z,15.30
2022-07-27T11:13:21.024Z,15.20
2022-07-27T11:16:23.438Z,15.20
2022-07-27T11:18:59.404Z,15.30
2022-07-27T11:21:31.589Z,15.40
2022-07-27T11:24:03.906Z,15.40
2022-07-27T11:26:38.901Z,15.50
2022-07-27T11:29:11.917Z,15.40
2022-07-27T11:31:58.292Z,15.50
2022-07-27T11:34:27.638Z,15.60
2022-07-27T11:36:55.148Z,15.60
2022-07-27T11:42:18.656Z,15.90
2022-07-27T11:44:49.260Z,16.10
2022-07-27T11:47:20.405Z,16.20
2022-07-27T11:49:48.023Z,16.30
2022-07-27T11:52:18.705Z,16.50
2022-07-27T11:54:52.565Z,16.40
2022-07-27T11:57:20.862Z,16.70
2022-07-27T11:59:48.690Z,16.70
2022-07-27T12:02:22.196Z,16.70
2022-07-27T12:04:52.479Z,16.70
2022-07-27T12:07:30.274Z,16.60
2022-07-27T12:10:03.702Z,16.60
2022-07-27T12:12:33.237Z,16.70
2022-07-27T12:15:11.600Z,16.70
2022-07-27T12:17:57.072Z,16.50
2022-07-27T12:20:33.205Z,16.80
2022-07-27T12:23:06.721Z,17.00
2022-07-27T12:25:35.388Z,17.00
2022-07-27T12:28:11.109Z,17.00
2022-07-27T12:30:50.609Z,16.90
2022-07-27T12:33:31.734Z,17.00
2022-07-27T12:36:00.843Z,17.00
2022-07-27T12:38:50.723Z,17.00
2022-07-27T12:41:30.890Z,17.40
2022-07-27T12:44:12.421Z,17.60
2022-07-27T12:47:01.973Z,17.80
2022-07-27T12:49:40.846Z,17.70
2022-07-27T12:52:11.456Z,17.80
2022-07-27T12:54:39.584Z,18.20
2022-07-27T12:57:07.152Z,17.90
2022-07-27T12:59:34.697Z,17.90
2022-07-27T13:02:02.346Z,17.90
2022-07-27T13:04:30.003Z,17.80
2022-07-27T13:06:57.562Z,17.70
2022-07-27T13:09:25.088Z,18.20
2022-07-27T13:12:13.504Z,18.30
2022-07-27T13:14:41.185Z,18.20
2022-07-27T13:17:11.136Z,18.40
2022-07-27T13:19:38.669Z,18.10
2022-07-27T13:22:06.513Z,18.10
2022-07-27T13:24:33.990Z,18.20
2022-07-27T13:27:01.855Z,18.00
2022-07-27T13:29:29.558Z,18.00
2022-07-27T13:31:57.729Z,17.90
2022-07-27T13:34:25.632Z,17.90
2022-07-27T13:36:53.477Z,17.90
2022-07-27T13:39:21.048Z,17.90
2022-07-27T13:41:52.795Z,17.90
2022-07-27T13:44:49.167Z,17.90
2022-07-27T13:47:11.760Z,17.60
2022-07-27T13:49:39.418Z,17.40
2022-07-27T13:52:07.082Z,17.50
2022-07-27T13:54:34.650Z,17.20
2022-07-27T13:57:02.305Z,17.10
2022-07-27T13:59:29.973Z,16.90
2022-07-27T14:01:57.651Z,16.80
2022-07-27T14:04:25.252Z,16.80
2022-07-27T14:06:53.464Z,16.90
2022-07-27T14:09:41.828Z,16.70
2022-07-27T14:12:09.697Z,16.70
2022-07-27T14:14:37.589Z,16.70
2022-07-27T14:17:05.345Z,16.70
2022-07-27T14:19:33.170Z,16.60
2022-07-27T14:22:00.787Z,16.60
2022-07-27T14:24:28.641Z,16.60
2022-07-27T14:26:57.901Z,16.50
2022-07-27T14:29:25.432Z,16.60
2022-07-27T14:31:53.063Z,16.70
2022-07-27T14:34:20.632Z,16.70
2022-07-27T14:36:48.523Z,16.70
2022-07-27T14:39:16.302Z,16.70
2022-07-27T14:41:44.509Z,16.70
2022-07-27T14:44:12.117Z,16.80
2022-07-27T14:46:39.770Z,16.90
2022-07-27T14:49:08.567Z,17.00
2022-07-27T14:51:36.497Z,16.90
2022-07-27T14:54:04.679Z,17.00
2022-07-27T14:56:32.424Z,17.10
2022-07-27T14:58:59.895Z,16.90
2022-07-27T15:01:27.664Z,17.00
2022-07-27T15:03:56.456Z,16.90
2022-07-27T15:06:24.090Z,16.90
2022-07-27T15:08:51.665Z,17.00
2022-07-27T15:11:19.330Z,17.00
2022-07-27T15:13:46.904Z,17.20
2022-07-27T15:16:14.680Z,17.40
2022-07-27T15:18:42.916Z,17.20
2022-07-27T15:21:14.094Z,17.00
2022-07-27T15:23:43.381Z,17.00
2022-07-27T15:26:12.599Z,17.00
2022-07-27T15:28:41.328Z,17.00
2022-07-27T15:31:09.719Z,16.90
2022-07-27T15:33:37.508Z,17.10
2022-07-27T15:36:05.474Z,17.00
2022-07-27T15:38:33.031Z,17.00
2022-07-27T15:41:00.702Z,17.10
2022-07-27T15:43:28.251Z,17.10
2022-07-27T15:45:55.768Z,17.00
2022-07-27T15:48:23.640Z,16.80
2022-07-27T15:50:53.620Z,16.70
2022-07-27T15:53:22.362Z,16.80
2022-07-27T15:55:52.427Z,16.80
2022-07-27T15:58:20.873Z,16.60
2022-07-27T16:00:51.099Z,16.60
2022-07-27T16:03:20.114Z,16.60
2022-07-27T16:05:50.486Z,16.60
2022-07-27T16:08:19.162Z,16.80
2022-07-27T16:10:48.947Z,16.80
2022-07-27T16:13:16.844Z,16.60
2022-07-27T16:16:03.149Z,16.60
2022-07-27T16:18:35.320Z,16.70
2022-07-27T16:21:06.445Z,16.90
2022-07-27T16:23:34.213Z,16.90
2022-07-27T16:26:04.966Z,16.90
2022-07-27T16:28:39.667Z,16.80
2022-07-27T16:31:10.469Z,16.60
2022-07-27T16:33:38.586Z,16.60
2022-07-27T16:36:08.504Z,16.60
2022-07-27T16:38:37.916Z,16.70
2022-07-27T16:41:09.507Z,16.70
2022-07-27T16:43:39.169Z,16.70
2022-07-27T16:46:08.742Z,16.80
2022-07-27T16:48:41.966Z,16.90
2022-07-27T16:51:12.636Z,16.90
2022-07-27T16:53:46.008Z,16.90
2022-07-27T16:56:14.634Z,16.90
2022-07-27T16:58:43.401Z,16.60
2022-07-27T17:01:21.740Z,16.60
2022-07-27T17:03:54.759Z,16.50
2022-07-27T17:06:22.971Z,16.30
2022-07-27T17:08:50.556Z,16.10
2022-07-27T17:11:21.029Z,16.20
2022-07-27T17:13:50.830Z,16.10
2022-07-27T17:16:25.901Z,16.00
2022-07-27T17:18:53.453Z,16.00
2022-07-27T17:21:21.024Z,15.90
2022-07-27T17:23:48.684Z,15.70
2022-07-27T17:26:16.280Z,15.70
2022-07-27T17:28:43.781Z,15.70
2022-07-27T17:31:12.730Z,15.70
2022-07-27T17:33:41.288Z,15.60
2022-07-27T17:36:14.665Z,15.60
2022-07-27T17:38:44.902Z,15.60
2022-07-27T17:41:14.169Z,15.60
2022-07-27T17:43:42.276Z,15.70
2022-07-27T17:46:11.205Z,15.80
2022-07-27T17:48:39.869Z,15.80
2022-07-27T17:51:08.710Z,15.80
2022-07-27T17:53:36.495Z,15.60
2022-07-27T17:56:04.946Z,15.70
2022-07-27T17:58:32.548Z,15.60
2022-07-27T18:01:00.316Z,15.70
2022-07-27T18:03:28.160Z,15.80
2022-07-27T18:05:55.867Z,15.70
2022-07-27T18:08:24.590Z,15.70
2022-07-27T18:10:52.249Z,15.60
2022-07-27T18:13:20.086Z,15.60
2022-07-27T18:15:47.881Z,15.70
2022-07-27T18:18:17.818Z,15.60
2022-07-27T18:20:48.282Z,15.70
2022-07-27T18:23:16.606Z,15.70
2022-07-27T18:25:45.151Z,15.70
2022-07-27T18:28:16.438Z,15.50
2022-07-27T18:30:48.781Z,15.40
2022-07-27T18:33:16.793Z,15.40
2022-07-27T18:35:45.479Z,15.40
2022-07-27T18:38:13.842Z,15.50
2022-07-27T18:40:44.571Z,15.60
2022-07-27T18:43:12.764Z,15.50
2022-07-27T18:45:40.881Z,15.50
2022-07-27T18:48:10.247Z,15.50
2022-07-27T18:50:39.988Z,15.40
2022-07-27T18:53:08.767Z,15.30
2022-07-27T18:55:37.176Z,15.30
2022-07-27T18:58:05.271Z,15.30
2022-07-27T19:00:33.814Z,15.30
2022-07-27T19:03:01.729Z,15.30
2022-07-27T19:05:40.437Z,15.30
2022-07-27T19:08:13.383Z,15.20
2022-07-27T19:10:43.024Z,15.20
2022-07-27T19:13:11.853Z,15.20
2022-07-27T19:15:40.082Z,15.20
2022-07-27T19:18:08.119Z,15.20
2022-07-27T19:20:37.718Z,15.30
2022-07-27T19:23:06.971Z,15.20
2022-07-27T19:25:34.975Z,15.20
2022-07-27T19:28:03.815Z,15.20
2022-07-27T19:30:31.664Z,15.20
2022-07-27T19:33:00.052Z,14.90
2022-07-27T19:35:27.715Z,14.80
2022-07-27T19:37:55.298Z,14.80
2022-07-27T19:43:10.713Z,14.90
2022-07-27T19:45:38.509Z,14.90
2022-07-27T19:48:06.745Z,15.00
2022-07-27T19:50:34.872Z,15.00
2022-07-27T19:53:02.710Z,15.00
2022-07-27T19:55:30.449Z,14.90
2022-07-27T19:57:58.002Z,15.00
2022-07-27T20:00:25.665Z,15.00
2022-07-27T20:02:53.308Z,15.00
2022-07-27T20:05:21.050Z,14.90
2022-07-27T20:07:48.553Z,14.90
2022-07-27T20:10:16.613Z,15.00
2022-07-27T20:12:44.136Z,15.00
2022-07-27T20:15:11.763Z,15.00
2022-07-27T20:17:40.786Z,14.90
2022-07-27T20:20:09.532Z,14.80
2022-07-27T20:22:39.328Z,14.70
2022-07-27T20:25:09.965Z,14.70
2022-07-27T20:27:38.645Z,14.70
2022-07-27T20:30:06.722Z,14.60
2022-07-27T20:32:34.551Z,14.50
2022-07-27T20:35:02.743Z,14.50
2022-07-27T20:37:30.364Z,14.50
2022-07-27T20:39:58.006Z,14.50
2022-07-27T20:42:25.973Z,14.50
2022-07-27T20:44:53.828Z,14.50
2022-07-27T20:47:21.494Z,14.50
2022-07-27T20:49:49.339Z,14.50
2022-07-27T20:52:16.950Z,14.60
2022-07-27T20:54:44.631Z,14.50
2022-07-27T20:57:12.270Z,14.50
2022-07-27T20:59:39.837Z,14.50
2022-07-27T21:02:07.802Z,14.50
2022-07-27T21:04:35.625Z,14.30
2022-07-27T21:07:03.296Z,14.30
2022-07-27T21:09:31.730Z,14.30
2022-07-27T21:11:59.508Z,14.30
2022-07-27T21:14:27.141Z,14.30
2022-07-27T21:16:55.031Z,14.30
2022-07-27T21:19:22.814Z,14.30
2022-07-27T21:21:50.446Z,14.30
2022-07-27T21:24:20.042Z,14.30
2022-07-27T21:26:50.280Z,14.30
2022-07-27T21:29:19.515Z,14.30
2022-07-27T21:31:49.144Z,14.30
2022-07-27T21:34:19.923Z,14.30
2022-07-27T21:36:48.215Z,14.30
2022-07-27T21:39:18.052Z,14.30
2022-07-27T21:41:45.924Z,14.30
2022-07-27T21:44:14.351Z,14.30
2022-07-27T21:46:42.453Z,14.20
2022-07-27T21:49:10.560Z,14.20
2022-07-27T21:51:38.238Z,14.20
2022-07-27T21:54:06.667Z,14.20
2022-07-27T21:56:41.731Z,14.20
2022-07-27T21:59:10.111Z,14.10
2022-07-27T22:01:37.729Z,14.10
2022-07-27T22:04:06.341Z,14.10
2022-07-27T22:06:34.115Z,14.10
2022-07-27T22:09:01.681Z,14.00
2022-07-27T22:11:29.265Z,14.00
2022-07-27T22:13:56.966Z,14.10
2022-07-27T22:16:24.697Z,14.00
2022-07-27T22:18:52.329Z,14.00
2022-07-27T22:21:20.072Z,14.00
2022-07-27T22:23:49.224Z,13.90
2022-07-27T22:26:17.493Z,14.00
2022-07-27T22:28:45.134Z,14.00
2022-07-27T22:31:21.096Z,13.90
2022-07-27T22:33:50.968Z,13.80
2022-07-27T22:36:18.713Z,13.90
2022-07-27T22:38:46.459Z,13.90
2022-07-27T22:41:14.203Z,13.90
2022-07-27T22:43:41.730Z,13.90
2022-07-27T22:46:10.092Z,13.90
2022-07-27T22:48:38.088Z,13.80
2022-07-27T22:51:05.683Z,13.80
2022-07-27T22:53:33.621Z,13.90
2022-07-27T22:56:01.202Z,13.80
2022-07-27T22:58:28.821Z,13.80
2022-07-27T23:00:59.667Z,13.70
2022-07-27T23:03:27.804Z,13.70
2022-07-27T23:05:55.349Z,13.70
2022-07-27T23:08:23.154Z,13.60
2022-07-27T23:10:50.814Z,13.60
2022-07-27T23:13:19.730Z,13.50
2022-07-27T23:15:47.851Z,13.50
2022-07-27T23:18:16.812Z,13.40
2022-07-27T23:20:45.075Z,13.40
2022-07-27T23:23:15.685Z,13.30
2022-07-27T23:25:48.643Z,13.20
2022-07-27T23:28:17.273Z,13.10
2022-07-27T23:30:44.785Z,13.10
2022-07-27T23:33:12.529Z,13.10
2022-07-27T23:35:40.206Z,13.10
2022-07-27T23:38:07.806Z,13.00
2022-07-27T23:40:35.560Z,13.00
2022-07-27T23:43:03.307Z,13.00
2022-07-27T23:45:30.821Z,13.00
2022-07-27T23:47:58.433Z,13.00
2022-07-27T23:50:26.552Z,12.90
2022-07-27T23:52:54.178Z,12.90
2022-07-27T23:55:21.804Z,12.90
2022-07-27T23:57:49.317Z,12.80
